sensor_id;sensor_type;location;lat;lon;timestamp;temperature;humidity
11242;DHT22;5678;52.370;9.006;2022-08-19T00:01:57;19.10;99.90
11242;DHT22;5678;52.370;9.006;2022-08-19T00:04:28;19.00;99.90
11242;DHT22;5678;52.370;9.006;2022-08-19T00:06:57;19.00;99.90
11242;DHT22;5678;52.370;9.006;2022-08-19T00:09:27;18.90;99.90
11242;DHT22;5678;52.370;9.006;2022-08-19T00:11:56;18.90;99.90
11242;DHT22;5678;52.370;9.006;2022-08-19T00:14:25;18.90;99.90
11242;DHT22;5678;52.370;9.006;2022-08-19T00:16:54;18.90;99.90
11242;DHT22;5678;52.370;9.006;2022-08-19T00:19:23;18.90;99.90
11242;DHT22;5678;52.370;9.006;2022-08-19T00:21:51;18.90;99.90
11242;DHT22;5678;52.370;9.006;2022-08-19T00:24:19;18.90;99.90
11242;DHT22;5678;52.370;9.006;2022-08-19T00:26:49;18.90;99.90
11242;DHT22;5678;52.370;9.006;2022-08-19T00:29:19;18.90;99.90
11242;DHT22;5678;52.370;9.006;2022-08-19T00:31:48;18.80;99.90
11242;DHT22;5678;52.370;9.006;2022-08-19T00:34:16;18.70;99.90
11242;DHT22;5678;52.370;9.006;2022-08-19T00:36:45;18.80;99.90
11242;DHT22;5678;52.370;9.006;2022-08-19T00:39:15;18.70;99.90
11242;DHT22;5678;52.370;9.006;2022-08-19T00:41:46;18.90;99.90
11242;DHT22;5678;52.370;9.006;2022-08-19T00:44:19;18.80;99.90
11242;DHT22;5678;52.370;9.006;2022-08-19T00:46:54;18.70;99.90
11242;DHT22;5678;52.370;9.006;2022-08-19T00:49:27;18.70;99.90
11242;DHT22;5678;52.370;9.006;2022-08-19T00:52:00;18.70;99.90
11242;DHT22;5678;52.370;9.006;2022-08-19T00:54:30;18.70;99.90
11242;DHT22;5678;52.370;9.006;2022-08-19T00:57:00;18.60;99.90
11242;DHT22;5678;52.370;9.006;2022-08-19T00:59:30;18.50;99.90
11242;DHT22;5678;52.370;9.006;2022-08-19T01:02:18;18.40;99.90
11242;DHT22;5678;52.370;9.006;2022-08-19T01:04:46;18.40;99.90
11242;DHT22;5678;52.370;9.006;2022-08-19T01:07:15;18.40;99.90
11242;DHT22;5678;52.370;9.006;2022-08-19T01:09:46;18.30;99.90
11242;DHT22;5678;52.370;9.006;2022-08-19T01:12:14;18.30;99.90
11242;DHT22;5678;52.370;9.006;2022-08-19T01:14:45;18.20;99.90
11242;DHT22;5678;52.370;9.006;2022-08-19T01:17:14;18.10;99.90
11242;DHT22;5678;52.370;9.006;2022-08-19T01:19:43;18.00;99.90
11242;DHT22;5678;52.370;9.006;2022-08-19T01:22:16;17.90;99.90
11242;DHT22;5678;52.370;9.006;2022-08-19T01:24:57;17.90;99.90
11242;DHT22;5678;52.370;9.006;2022-08-19T01:27:25;17.80;99.90
11242;DHT22;5678;52.370;9.006;2022-08-19T01:30:05;17.80;99.90
11242;DHT22;5678;52.370;9.006;2022-08-19T01:32:33;17.70;99.90
11242;DHT22;5678;52.370;9.006;2022-08-19T01:35:02;17.60;99.90
11242;DHT22;5678;52.370;9.006;2022-08-19T01:37:40;17.60;99.90
11242;DHT22;5678;52.370;9.006;2022-08-19T01:40:11;17.50;99.90
11242;DHT22;5678;52.370;9.006;2022-08-19T01:42:39;17.60;99.90
11242;DHT22;5678;52.370;9.006;2022-08-19T01:45:08;17.60;99.90
11242;DHT22;5678;52.370;9.006;2022-08-19T01:47:37;17.30;99.90
11242;DHT22;5678;52.370;9.006;2022-08-19T01:50:07;17.30;99.90
11242;DHT22;5678;52.370;9.006;2022-08-19T01:52:36;17.20;99.90
11242;DHT22;5678;52.370;9.006;2022-08-19T01:55:06;17.10;99.90
11242;DHT22;5678;52.370;9.006;2022-08-19T01:57:36;17.10;99.90
11242;DHT22;5678;52.370;9.006;2022-08-19T02:00:07;17.10;99.90
11242;DHT22;5678;52.370;9.006;2022-08-19T02:02:36;17.00;99.90
11242;DHT22;5678;52.370;9.006;2022-08-19T02:05:05;17.00;99.90
11242;DHT22;5678;52.370;9.006;2022-08-19T02:07:37;17.00;99.90
11242;DHT22;5678;52.370;9.006;2022-08-19T02:10:10;17.00;99.90
11242;DHT22;5678;52.370;9.006;2022-08-19T02:12:44;16.90;99.90
11242;DHT22;5678;52.370;9.006;2022-08-19T02:15:13;16.90;99.90
11242;DHT22;5678;52.370;9.006;2022-08-19T02:17:42;16.80;99.90
11242;DHT22;5678;52.370;9.006;2022-08-19T02:20:11;16.80;99.90
11242;DHT22;5678;52.370;9.006;2022-08-19T02:22:40;16.70;99.90
11242;DHT22;5678;52.370;9.006;2022-08-19T02:25:09;16.70;99.90
11242;DHT22;5678;52.370;9.006;2022-08-19T02:27:38;16.60;99.90
11242;DHT22;5678;52.370;9.006;2022-08-19T02:30:12;16.60;99.90
11242;DHT22;5678;52.370;9.006;2022-08-19T02:32:42;16.60;99.90
11242;DHT22;5678;52.370;9.006;2022-08-19T02:35:11;16.50;99.90
11242;DHT22;5678;52.370;9.006;2022-08-19T02:37:39;16.50;99.90
11242;DHT22;5678;52.370;9.006;2022-08-19T02:40:24;16.50;99.90
11242;DHT22;5678;52.370;9.006;2022-08-19T02:42:52;16.40;99.90
11242;DHT22;5678;52.370;9.006;2022-08-19T02:45:22;16.40;99.90
11242;DHT22;5678;52.370;9.006;2022-08-19T02:47:50;16.40;99.90
11242;DHT22;5678;52.370;9.006;2022-08-19T02:50:18;16.30;99.90
11242;DHT22;5678;52.370;9.006;2022-08-19T02:52:45;16.30;99.90
11242;DHT22;5678;52.370;9.006;2022-08-19T02:55:13;16.30;99.90
11242;DHT22;5678;52.370;9.006;2022-08-19T02:57:41;16.30;99.90
11242;DHT22;5678;52.370;9.006;2022-08-19T03:00:10;16.30;99.90
11242;DHT22;5678;52.370;9.006;2022-08-19T03:02:40;16.30;99.90
11242;DHT22;5678;52.370;9.006;2022-08-19T03:05:09;16.20;99.90
11242;DHT22;5678;52.370;9.006;2022-08-19T03:07:37;16.20;99.90
11242;DHT22;5678;52.370;9.006;2022-08-19T03:10:06;16.20;99.90
11242;DHT22;5678;52.370;9.006;2022-08-19T03:12:36;16.20;99.90
11242;DHT22;5678;52.370;9.006;2022-08-19T03:15:05;16.20;99.90
11242;DHT22;5678;52.370;9.006;2022-08-19T03:17:34;16.10;99.90
11242;DHT22;5678;52.370;9.006;2022-08-19T03:20:04;16.00;99.90
11242;DHT22;5678;52.370;9.006;2022-08-19T03:22:32;16.10;99.90
11242;DHT22;5678;52.370;9.006;2022-08-19T03:25:00;16.00;99.90
11242;DHT22;5678;52.370;9.006;2022-08-19T03:27:28;16.00;99.90
11242;DHT22;5678;52.370;9.006;2022-08-19T03:30:00;16.00;99.90
11242;DHT22;5678;52.370;9.006;2022-08-19T03:32:29;15.90;99.90
11242;DHT22;5678;52.370;9.006;2022-08-19T03:34:59;15.90;99.90
11242;DHT22;5678;52.370;9.006;2022-08-19T03:37:28;15.90;99.90
11242;DHT22;5678;52.370;9.006;2022-08-19T03:39:56;15.80;99.90
11242;DHT22;5678;52.370;9.006;2022-08-19T03:42:24;15.80;99.90
11242;DHT22;5678;52.370;9.006;2022-08-19T03:45:04;15.80;99.90
11242;DHT22;5678;52.370;9.006;2022-08-19T03:47:33;15.80;99.90
11242;DHT22;5678;52.370;9.006;2022-08-19T03:50:01;15.80;99.90
11242;DHT22;5678;52.370;9.006;2022-08-19T03:52:31;15.80;99.90
11242;DHT22;5678;52.370;9.006;2022-08-19T03:54:59;15.70;99.90
11242;DHT22;5678;52.370;9.006;2022-08-19T03:57:27;15.70;99.90
11242;DHT22;5678;52.370;9.006;2022-08-19T03:59:58;15.80;99.90
11242;DHT22;5678;52.370;9.006;2022-08-19T04:02:39;15.70;99.90
11242;DHT22;5678;52.370;9.006;2022-08-19T04:05:21;15.80;99.90
11242;DHT22;5678;52.370;9.006;2022-08-19T04:07:54;15.70;99.90
11242;DHT22;5678;52.370;9.006;2022-08-19T04:10:23;15.70;99.90
11242;DHT22;5678;52.370;9.006;2022-08-19T04:12:51;15.70;99.90
11242;DHT22;5678;52.370;9.006;2022-08-19T04:15:19;15.70;99.90
11242;DHT22;5678;52.370;9.006;2022-08-19T04:17:47;15.70;99.90
11242;DHT22;5678;52.370;9.006;2022-08-19T04:20:15;15.80;99.90
11242;DHT22;5678;52.370;9.006;2022-08-19T04:22:43;15.80;99.90
11242;DHT22;5678;52.370;9.006;2022-08-19T04:25:13;15.80;99.90
11242;DHT22;5678;52.370;9.006;2022-08-19T04:27:41;15.80;99.90
11242;DHT22;5678;52.370;9.006;2022-08-19T04:30:13;15.80;99.90
11242;DHT22;5678;52.370;9.006;2022-08-19T04:32:42;15.80;99.90
11242;DHT22;5678;52.370;9.006;2022-08-19T04:35:11;15.90;99.90
11242;DHT22;5678;52.370;9.006;2022-08-19T04:37:44;15.90;99.90
11242;DHT22;5678;52.370;9.006;2022-08-19T04:40:14;15.90;99.90
11242;DHT22;5678;52.370;9.006;2022-08-19T04:42:59;15.80;99.90
11242;DHT22;5678;52.370;9.006;2022-08-19T04:45:27;15.80;99.90
11242;DHT22;5678;52.370;9.006;2022-08-19T04:48:09;15.80;99.90
11242;DHT22;5678;52.370;9.006;2022-08-19T04:50:53;15.80;99.90
11242;DHT22;5678;52.370;9.006;2022-08-19T04:53:24;15.80;99.90
11242;DHT22;5678;52.370;9.006;2022-08-19T04:56:07;15.80;99.90
11242;DHT22;5678;52.370;9.006;2022-08-19T04:58:35;15.80;99.90
11242;DHT22;5678;52.370;9.006;2022-08-19T05:01:04;15.80;99.90
11242;DHT22;5678;52.370;9.006;2022-08-19T05:03:33;15.80;99.90
11242;DHT22;5678;52.370;9.006;2022-08-19T05:06:05;15.90;99.90
11242;DHT22;5678;52.370;9.006;2022-08-19T05:08:35;15.90;99.90
11242;DHT22;5678;52.370;9.006;2022-08-19T05:11:11;16.00;99.90
11242;DHT22;5678;52.370;9.006;2022-08-19T05:13:40;16.00;99.90
11242;DHT22;5678;52.370;9.006;2022-08-19T05:16:10;16.00;99.90
11242;DHT22;5678;52.370;9.006;2022-08-19T05:18:38;16.00;99.90
11242;DHT22;5678;52.370;9.006;2022-08-19T05:21:25;16.10;99.90
11242;DHT22;5678;52.370;9.006;2022-08-19T05:24:12;16.30;99.90
11242;DHT22;5678;52.370;9.006;2022-08-19T05:26:45;16.20;99.90
11242;DHT22;5678;52.370;9.006;2022-08-19T05:29:17;16.20;99.90
11242;DHT22;5678;52.370;9.006;2022-08-19T05:31:48;16.30;99.90
11242;DHT22;5678;52.370;9.006;2022-08-19T05:34:17;16.30;99.90
11242;DHT22;5678;52.370;9.006;2022-08-19T05:36:46;16.30;99.90
11242;DHT22;5678;52.370;9.006;2022-08-19T05:39:16;16.50;99.90
11242;DHT22;5678;52.370;9.006;2022-08-19T05:41:48;16.80;99.90
11242;DHT22;5678;52.370;9.006;2022-08-19T05:44:17;16.70;99.90
11242;DHT22;5678;52.370;9.006;2022-08-19T05:46:45;16.90;99.90
11242;DHT22;5678;52.370;9.006;2022-08-19T05:49:14;16.90;99.90
11242;DHT22;5678;52.370;9.006;2022-08-19T05:51:42;17.00;99.90
11242;DHT22;5678;52.370;9.006;2022-08-19T05:54:11;17.30;99.90
11242;DHT22;5678;52.370;9.006;2022-08-19T05:56:40;17.60;99.90
11242;DHT22;5678;52.370;9.006;2022-08-19T05:59:10;17.80;99.90
11242;DHT22;5678;52.370;9.006;2022-08-19T06:01:43;18.10;99.90
11242;DHT22;5678;52.370;9.006;2022-08-19T06:04:12;18.50;99.90
11242;DHT22;5678;52.370;9.006;2022-08-19T06:06:41;19.00;99.90
11242;DHT22;5678;52.370;9.006;2022-08-19T06:09:08;19.30;99.90
11242;DHT22;5678;52.370;9.006;2022-08-19T06:11:39;19.40;99.90
11242;DHT22;5678;52.370;9.006;2022-08-19T06:14:11;19.40;99.90
11242;DHT22;5678;52.370;9.006;2022-08-19T06:16:43;19.20;99.90
11242;DHT22;5678;52.370;9.006;2022-08-19T06:19:13;19.20;99.90
11242;DHT22;5678;52.370;9.006;2022-08-19T06:21:43;19.40;99.90
11242;DHT22;5678;52.370;9.006;2022-08-19T06:24:13;19.70;99.90
11242;DHT22;5678;52.370;9.006;2022-08-19T06:26:45;20.20;99.90
11242;DHT22;5678;52.370;9.006;2022-08-19T06:29:16;20.20;99.90
11242;DHT22;5678;52.370;9.006;2022-08-19T06:31:52;20.60;99.90
11242;DHT22;5678;52.370;9.006;2022-08-19T06:34:21;20.40;99.90
11242;DHT22;5678;52.370;9.006;2022-08-19T06:36:51;20.30;99.90
11242;DHT22;5678;52.370;9.006;2022-08-19T06:39:20;20.20;99.90
11242;DHT22;5678;52.370;9.006;2022-08-19T06:41:51;20.10;99.90
11242;DHT22;5678;52.370;9.006;2022-08-19T06:44:30;20.10;99.90
11242;DHT22;5678;52.370;9.006;2022-08-19T06:47:11;20.30;99.90
11242;DHT22;5678;52.370;9.006;2022-08-19T06:49:48;20.30;99.90
11242;DHT22;5678;52.370;9.006;2022-08-19T06:52:16;20.30;99.90
11242;DHT22;5678;52.370;9.006;2022-08-19T06:54:44;20.30;99.90
11242;DHT22;5678;52.370;9.006;2022-08-19T06:57:22;20.10;99.90
11242;DHT22;5678;52.370;9.006;2022-08-19T06:59:52;20.00;99.90
11242;DHT22;5678;52.370;9.006;2022-08-19T07:02:21;20.00;99.90
11242;DHT22;5678;52.370;9.006;2022-08-19T07:04:52;20.10;99.90
11242;DHT22;5678;52.370;9.006;2022-08-19T07:07:23;20.00;99.90
11242;DHT22;5678;52.370;9.006;2022-08-19T07:09:51;20.00;99.90
11242;DHT22;5678;52.370;9.006;2022-08-19T07:12:26;19.90;99.90
11242;DHT22;5678;52.370;9.006;2022-08-19T07:14:58;19.90;99.90
11242;DHT22;5678;52.370;9.006;2022-08-19T07:17:27;20.00;99.90
11242;DHT22;5678;52.370;9.006;2022-08-19T07:19:56;20.00;99.90
11242;DHT22;5678;52.370;9.006;2022-08-19T07:22:31;20.00;99.90
11242;DHT22;5678;52.370;9.006;2022-08-19T07:24:59;20.20;99.90
11242;DHT22;5678;52.370;9.006;2022-08-19T07:27:29;20.00;99.90
11242;DHT22;5678;52.370;9.006;2022-08-19T07:30:01;20.10;99.90
11242;DHT22;5678;52.370;9.006;2022-08-19T07:32:30;20.20;99.90
11242;DHT22;5678;52.370;9.006;2022-08-19T07:34:58;20.40;99.90
11242;DHT22;5678;52.370;9.006;2022-08-19T07:37:29;20.50;99.90
11242;DHT22;5678;52.370;9.006;2022-08-19T07:39:59;20.40;99.90
11242;DHT22;5678;52.370;9.006;2022-08-19T07:42:27;20.50;99.90
11242;DHT22;5678;52.370;9.006;2022-08-19T07:44:56;20.50;99.90
11242;DHT22;5678;52.370;9.006;2022-08-19T07:47:26;20.60;99.90
11242;DHT22;5678;52.370;9.006;2022-08-19T07:50:15;20.70;99.90
11242;DHT22;5678;52.370;9.006;2022-08-19T07:52:44;20.70;99.90
11242;DHT22;5678;52.370;9.006;2022-08-19T07:55:17;20.90;99.90
11242;DHT22;5678;52.370;9.006;2022-08-19T07:58:05;21.00;99.90
11242;DHT22;5678;52.370;9.006;2022-08-19T08:00:33;21.00;99.90
11242;DHT22;5678;52.370;9.006;2022-08-19T08:03:03;21.20;99.90
11242;DHT22;5678;52.370;9.006;2022-08-19T08:05:31;21.10;99.90
11242;DHT22;5678;52.370;9.006;2022-08-19T08:08:17;21.20;99.90
11242;DHT22;5678;52.370;9.006;2022-08-19T08:11:02;21.60;99.90
11242;DHT22;5678;52.370;9.006;2022-08-19T08:13:33;21.90;99.90
11242;DHT22;5678;52.370;9.006;2022-08-19T08:16:02;22.20;99.90
11242;DHT22;5678;52.370;9.006;2022-08-19T08:18:37;22.40;99.90
11242;DHT22;5678;52.370;9.006;2022-08-19T08:21:08;22.40;99.90
11242;DHT22;5678;52.370;9.006;2022-08-19T08:23:36;22.40;99.90
11242;DHT22;5678;52.370;9.006;2022-08-19T08:26:05;22.50;99.90
11242;DHT22;5678;52.370;9.006;2022-08-19T08:28:33;22.60;99.90
11242;DHT22;5678;52.370;9.006;2022-08-19T08:31:01;22.80;99.90
11242;DHT22;5678;52.370;9.006;2022-08-19T08:33:36;23.00;99.90
11242;DHT22;5678;52.370;9.006;2022-08-19T08:36:09;23.00;99.90
11242;DHT22;5678;52.370;9.006;2022-08-19T08:38:37;23.00;99.90
11242;DHT22;5678;52.370;9.006;2022-08-19T08:41:14;22.90;99.90
11242;DHT22;5678;52.370;9.006;2022-08-19T08:43:48;22.80;99.90
11242;DHT22;5678;52.370;9.006;2022-08-19T08:46:20;23.00;99.90
11242;DHT22;5678;52.370;9.006;2022-08-19T08:49:04;23.10;99.90
11242;DHT22;5678;52.370;9.006;2022-08-19T08:51:38;23.20;99.90
11242;DHT22;5678;52.370;9.006;2022-08-19T08:54:12;23.10;99.90
11242;DHT22;5678;52.370;9.006;2022-08-19T08:56:42;23.30;99.90
11242;DHT22;5678;52.370;9.006;2022-08-19T08:59:16;23.50;99.90
11242;DHT22;5678;52.370;9.006;2022-08-19T09:01:46;23.60;99.90
11242;DHT22;5678;52.370;9.006;2022-08-19T09:04:16;23.90;99.90
11242;DHT22;5678;52.370;9.006;2022-08-19T09:06:56;24.20;99.90
11242;DHT22;5678;52.370;9.006;2022-08-19T09:09:52;24.50;99.90
11242;DHT22;5678;52.370;9.006;2022-08-19T09:12:33;24.90;99.90
11242;DHT22;5678;52.370;9.006;2022-08-19T09:15:10;25.10;99.90
11242;DHT22;5678;52.370;9.006;2022-08-19T09:17:39;25.50;99.90
11242;DHT22;5678;52.370;9.006;2022-08-19T09:20:15;25.60;99.90
11242;DHT22;5678;52.370;9.006;2022-08-19T09:22:44;25.90;99.90
11242;DHT22;5678;52.370;9.006;2022-08-19T09:25:15;25.90;99.90
11242;DHT22;5678;52.370;9.006;2022-08-19T09:27:53;25.50;99.90
11242;DHT22;5678;52.370;9.006;2022-08-19T09:30:31;25.40;99.90
11242;DHT22;5678;52.370;9.006;2022-08-19T09:32:59;25.20;99.90
11242;DHT22;5678;52.370;9.006;2022-08-19T09:35:30;25.30;99.90
11242;DHT22;5678;52.370;9.006;2022-08-19T09:38:16;25.70;99.90
11242;DHT22;5678;52.370;9.006;2022-08-19T09:40:43;26.10;99.90
11242;DHT22;5678;52.370;9.006;2022-08-19T09:43:11;26.20;99.90
11242;DHT22;5678;52.370;9.006;2022-08-19T09:45:40;26.10;99.90
11242;DHT22;5678;52.370;9.006;2022-08-19T09:48:08;25.90;99.90
11242;DHT22;5678;52.370;9.006;2022-08-19T09:50:38;25.70;99.90
11242;DHT22;5678;52.370;9.006;2022-08-19T09:53:18;25.70;99.90
11242;DHT22;5678;52.370;9.006;2022-08-19T09:55:51;26.10;99.90
11242;DHT22;5678;52.370;9.006;2022-08-19T09:58:19;26.40;99.90
11242;DHT22;5678;52.370;9.006;2022-08-19T10:00:52;26.40;99.90
11242;DHT22;5678;52.370;9.006;2022-08-19T10:03:21;26.40;99.90
11242;DHT22;5678;52.370;9.006;2022-08-19T10:05:53;26.30;99.90
11242;DHT22;5678;52.370;9.006;2022-08-19T10:08:25;26.60;99.90
11242;DHT22;5678;52.370;9.006;2022-08-19T10:10:54;27.10;99.90
11242;DHT22;5678;52.370;9.006;2022-08-19T10:13:26;27.60;99.90
11242;DHT22;5678;52.370;9.006;2022-08-19T10:15:57;27.90;99.90
11242;DHT22;5678;52.370;9.006;2022-08-19T10:18:29;27.80;99.90
11242;DHT22;5678;52.370;9.006;2022-08-19T10:21:09;27.60;99.90
11242;DHT22;5678;52.370;9.006;2022-08-19T10:23:39;27.60;99.90
11242;DHT22;5678;52.370;9.006;2022-08-19T10:26:12;27.60;99.90
11242;DHT22;5678;52.370;9.006;2022-08-19T10:28:41;27.80;99.90
11242;DHT22;5678;52.370;9.006;2022-08-19T10:31:14;27.90;99.90
11242;DHT22;5678;52.370;9.006;2022-08-19T10:33:45;28.00;99.90
11242;DHT22;5678;52.370;9.006;2022-08-19T10:36:22;27.90;99.90
11242;DHT22;5678;52.370;9.006;2022-08-19T10:38:52;27.80;99.90
11242;DHT22;5678;52.370;9.006;2022-08-19T10:41:24;27.90;99.90
11242;DHT22;5678;52.370;9.006;2022-08-19T10:43:53;28.00;99.90
11242;DHT22;5678;52.370;9.006;2022-08-19T10:46:23;28.30;99.90
11242;DHT22;5678;52.370;9.006;2022-08-19T10:48:52;28.30;99.90
11242;DHT22;5678;52.370;9.006;2022-08-19T10:51:21;28.20;99.90
11242;DHT22;5678;52.370;9.006;2022-08-19T10:54:14;28.30;99.90
11242;DHT22;5678;52.370;9.006;2022-08-19T10:56:42;28.50;99.90
11242;DHT22;5678;52.370;9.006;2022-08-19T10:59:20;28.70;99.90
11242;DHT22;5678;52.370;9.006;2022-08-19T11:01:53;28.70;99.90
11242;DHT22;5678;52.370;9.006;2022-08-19T11:04:23;28.50;99.90
11242;DHT22;5678;52.370;9.006;2022-08-19T11:06:56;28.20;99.90
11242;DHT22;5678;52.370;9.006;2022-08-19T11:09:26;28.00;99.90
11242;DHT22;5678;52.370;9.006;2022-08-19T11:12:00;28.10;99.90
11242;DHT22;5678;52.370;9.006;2022-08-19T11:14:31;28.20;99.90
11242;DHT22;5678;52.370;9.006;2022-08-19T11:17:00;28.20;99.90
11242;DHT22;5678;52.370;9.006;2022-08-19T11:19:29;28.40;99.90
11242;DHT22;5678;52.370;9.006;2022-08-19T11:21:59;28.40;99.90
11242;DHT22;5678;52.370;9.006;2022-08-19T11:24:29;28.60;99.90
11242;DHT22;5678;52.370;9.006;2022-08-19T11:27:01;28.60;99.90
11242;DHT22;5678;52.370;9.006;2022-08-19T11:29:32;28.60;99.90
11242;DHT22;5678;52.370;9.006;2022-08-19T11:32:04;28.50;99.90
11242;DHT22;5678;52.370;9.006;2022-08-19T11:34:32;28.60;99.90
11242;DHT22;5678;52.370;9.006;2022-08-19T11:37:03;28.90;99.90
11242;DHT22;5678;52.370;9.006;2022-08-19T11:39:33;28.70;99.90
11242;DHT22;5678;52.370;9.006;2022-08-19T11:42:05;28.50;99.90
11242;DHT22;5678;52.370;9.006;2022-08-19T11:44:54;28.40;99.90
11242;DHT22;5678;52.370;9.006;2022-08-19T11:47:22;28.50;99.90
11242;DHT22;5678;52.370;9.006;2022-08-19T11:49:50;28.50;99.90
11242;DHT22;5678;52.370;9.006;2022-08-19T11:52:21;28.50;99.90
11242;DHT22;5678;52.370;9.006;2022-08-19T11:54:49;28.80;99.90
11242;DHT22;5678;52.370;9.006;2022-08-19T11:57:17;29.10;99.90
11242;DHT22;5678;52.370;9.006;2022-08-19T11:59:50;29.40;99.90
11242;DHT22;5678;52.370;9.006;2022-08-19T12:02:18;29.80;99.90
11242;DHT22;5678;52.370;9.006;2022-08-19T12:04:46;30.10;99.90
11242;DHT22;5678;52.370;9.006;2022-08-19T12:07:14;30.10;99.90
11242;DHT22;5678;52.370;9.006;2022-08-19T12:09:44;30.10;99.90
11242;DHT22;5678;52.370;9.006;2022-08-19T12:12:14;30.10;99.90
11242;DHT22;5678;52.370;9.006;2022-08-19T12:14:42;29.90;99.90
11242;DHT22;5678;52.370;9.006;2022-08-19T12:17:11;29.60;99.90
11242;DHT22;5678;52.370;9.006;2022-08-19T12:19:39;29.50;99.90
11242;DHT22;5678;52.370;9.006;2022-08-19T12:22:07;29.50;99.90
11242;DHT22;5678;52.370;9.006;2022-08-19T12:24:35;29.30;99.90
11242;DHT22;5678;52.370;9.006;2022-08-19T12:27:05;29.20;99.90
11242;DHT22;5678;52.370;9.006;2022-08-19T12:29:38;29.20;99.90
11242;DHT22;5678;52.370;9.006;2022-08-19T12:32:06;29.30;99.90
11242;DHT22;5678;52.370;9.006;2022-08-19T12:34:38;29.40;99.90
11242;DHT22;5678;52.370;9.006;2022-08-19T12:37:07;29.30;99.50
11242;DHT22;5678;52.370;9.006;2022-08-19T12:39:37;29.40;99.90
11242;DHT22;5678;52.370;9.006;2022-08-19T12:42:07;29.40;99.60
11242;DHT22;5678;52.370;9.006;2022-08-19T12:44:36;29.00;99.30
11242;DHT22;5678;52.370;9.006;2022-08-19T12:47:07;29.00;99.90
11242;DHT22;5678;52.370;9.006;2022-08-19T12:49:37;29.10;99.90
11242;DHT22;5678;52.370;9.006;2022-08-19T12:52:22;29.30;99.90
11242;DHT22;5678;52.370;9.006;2022-08-19T12:54:51;29.50;99.90
11242;DHT22;5678;52.370;9.006;2022-08-19T12:57:22;29.70;99.90
11242;DHT22;5678;52.370;9.006;2022-08-19T13:00:00;29.90;99.90
11242;DHT22;5678;52.370;9.006;2022-08-19T13:02:33;30.10;99.90
11242;DHT22;5678;52.370;9.006;2022-08-19T13:05:06;29.90;99.00
11242;DHT22;5678;52.370;9.006;2022-08-19T13:07:35;29.80;98.70
11242;DHT22;5678;52.370;9.006;2022-08-19T13:10:04;29.50;98.90
11242;DHT22;5678;52.370;9.006;2022-08-19T13:12:35;29.40;99.20
11242;DHT22;5678;52.370;9.006;2022-08-19T13:15:03;29.40;99.90
11242;DHT22;5678;52.370;9.006;2022-08-19T13:17:38;29.40;99.90
11242;DHT22;5678;52.370;9.006;2022-08-19T13:20:07;29.40;99.00
11242;DHT22;5678;52.370;9.006;2022-08-19T13:22:36;29.40;99.60
11242;DHT22;5678;52.370;9.006;2022-08-19T13:25:06;29.50;99.60
11242;DHT22;5678;52.370;9.006;2022-08-19T13:27:36;29.40;99.90
11242;DHT22;5678;52.370;9.006;2022-08-19T13:30:06;29.10;99.90
11242;DHT22;5678;52.370;9.006;2022-08-19T13:32:52;29.10;99.90
11242;DHT22;5678;52.370;9.006;2022-08-19T13:35:38;29.30;99.90
11242;DHT22;5678;52.370;9.006;2022-08-19T13:38:07;29.40;99.90
11242;DHT22;5678;52.370;9.006;2022-08-19T13:40:38;29.30;99.90
11242;DHT22;5678;52.370;9.006;2022-08-19T13:43:08;29.20;99.90
11242;DHT22;5678;52.370;9.006;2022-08-19T13:45:50;29.20;99.90
11242;DHT22;5678;52.370;9.006;2022-08-19T13:48:23;29.30;99.90
11242;DHT22;5678;52.370;9.006;2022-08-19T13:50:52;29.30;99.90
11242;DHT22;5678;52.370;9.006;2022-08-19T13:53:20;29.50;99.90
11242;DHT22;5678;52.370;9.006;2022-08-19T13:55:49;29.70;99.90
11242;DHT22;5678;52.370;9.006;2022-08-19T13:58:18;29.70;99.40
11242;DHT22;5678;52.370;9.006;2022-08-19T14:00:46;29.80;99.90
11242;DHT22;5678;52.370;9.006;2022-08-19T14:03:15;29.90;99.10
11242;DHT22;5678;52.370;9.006;2022-08-19T14:05:43;29.90;98.60
11242;DHT22;5678;52.370;9.006;2022-08-19T14:08:12;29.90;98.60
11242;DHT22;5678;52.370;9.006;2022-08-19T14:10:41;30.00;99.20
11242;DHT22;5678;52.370;9.006;2022-08-19T14:13:13;30.00;98.60
11242;DHT22;5678;52.370;9.006;2022-08-19T14:15:43;29.90;99.10
11242;DHT22;5678;52.370;9.006;2022-08-19T14:18:11;29.90;97.70
11242;DHT22;5678;52.370;9.006;2022-08-19T14:20:39;29.90;98.20
11242;DHT22;5678;52.370;9.006;2022-08-19T14:23:07;29.90;98.10
11242;DHT22;5678;52.370;9.006;2022-08-19T14:25:35;29.70;98.00
11242;DHT22;5678;52.370;9.006;2022-08-19T14:28:04;29.60;98.10
11242;DHT22;5678;52.370;9.006;2022-08-19T14:30:35;29.50;98.40
11242;DHT22;5678;52.370;9.006;2022-08-19T14:33:06;29.60;99.20
11242;DHT22;5678;52.370;9.006;2022-08-19T14:35:35;29.80;99.40
11242;DHT22;5678;52.370;9.006;2022-08-19T14:38:04;29.90;98.10
11242;DHT22;5678;52.370;9.006;2022-08-19T14:40:33;30.00;98.50
11242;DHT22;5678;52.370;9.006;2022-08-19T14:43:03;29.80;96.90
11242;DHT22;5678;52.370;9.006;2022-08-19T14:45:33;29.60;95.70
11242;DHT22;5678;52.370;9.006;2022-08-19T14:48:02;29.60;96.80
11242;DHT22;5678;52.370;9.006;2022-08-19T14:50:33;29.60;96.40
11242;DHT22;5678;52.370;9.006;2022-08-19T14:53:03;29.60;96.20
11242;DHT22;5678;52.370;9.006;2022-08-19T14:55:41;29.50;96.20
11242;DHT22;5678;52.370;9.006;2022-08-19T14:58:09;29.50;97.10
11242;DHT22;5678;52.370;9.006;2022-08-19T15:00:57;29.40;96.00
11242;DHT22;5678;52.370;9.006;2022-08-19T15:03:25;29.40;96.20
11242;DHT22;5678;52.370;9.006;2022-08-19T15:05:55;29.40;96.60
11242;DHT22;5678;52.370;9.006;2022-08-19T15:08:24;29.40;95.60
11242;DHT22;5678;52.370;9.006;2022-08-19T15:10:52;29.30;96.90
11242;DHT22;5678;52.370;9.006;2022-08-19T15:13:21;29.20;95.50
11242;DHT22;5678;52.370;9.006;2022-08-19T15:15:49;29.10;97.60
11242;DHT22;5678;52.370;9.006;2022-08-19T15:18:18;29.10;96.50
11242;DHT22;5678;52.370;9.006;2022-08-19T15:20:47;29.10;98.10
11242;DHT22;5678;52.370;9.006;2022-08-19T15:23:17;29.20;96.60
11242;DHT22;5678;52.370;9.006;2022-08-19T15:25:46;29.30;97.80
11242;DHT22;5678;52.370;9.006;2022-08-19T15:28:14;29.30;96.50
11242;DHT22;5678;52.370;9.006;2022-08-19T15:30:43;29.30;96.40
11242;DHT22;5678;52.370;9.006;2022-08-19T15:33:11;29.30;95.90
11242;DHT22;5678;52.370;9.006;2022-08-19T15:35:41;29.30;95.70
11242;DHT22;5678;52.370;9.006;2022-08-19T15:38:10;29.20;96.70
11242;DHT22;5678;52.370;9.006;2022-08-19T15:40:41;29.20;96.50
11242;DHT22;5678;52.370;9.006;2022-08-19T15:43:10;29.20;95.50
11242;DHT22;5678;52.370;9.006;2022-08-19T15:45:37;29.10;96.20
11242;DHT22;5678;52.370;9.006;2022-08-19T15:48:11;29.00;98.00
11242;DHT22;5678;52.370;9.006;2022-08-19T15:50:39;29.00;97.30
11242;DHT22;5678;52.370;9.006;2022-08-19T15:53:09;28.90;96.40
11242;DHT22;5678;52.370;9.006;2022-08-19T15:55:44;28.70;96.50
11242;DHT22;5678;52.370;9.006;2022-08-19T15:58:14;28.60;97.20
11242;DHT22;5678;52.370;9.006;2022-08-19T16:01:01;28.60;97.00
11242;DHT22;5678;52.370;9.006;2022-08-19T16:03:50;28.50;96.60
11242;DHT22;5678;52.370;9.006;2022-08-19T16:06:42;28.20;96.60
11242;DHT22;5678;52.370;9.006;2022-08-19T16:09:10;28.00;98.40
11242;DHT22;5678;52.370;9.006;2022-08-19T16:11:40;27.90;98.00